Time;durP1;ratioP1;P1;durP2;ratioP2;P2;SDS_P1;SDS_P2;PMS_P1;PMS_P2;Temp;Humidity;BMP_temperature;BMP_pressure;BME280_temperature;BME280_humidity;BME280_pressure;Samples;Min_cycle;Max_cycle;Signal;HPM_P1;HPM_P2
2022/05/01 00:00:47;;;;;;;12.00;9.98;;;5.90;99.90;;;;;;5052924;28;20051;-77
2022/05/01 00:03:30;;;;;;;11.03;8.70;;;5.90;99.90;;;;;;5049728;28;20033;-77
2022/05/01 00:06:01;;;;;;;11.73;9.02;;;5.80;99.90;;;;;;5035827;28;20041;-78
2022/05/01 00:08:27;;;;;;;11.00;8.48;;;5.80;99.90;;;;;;5051216;28;20076;-78
2022/05/01 00:10:54;;;;;;;11.13;9.00;;;5.70;99.90;;;;;;5053241;28;20032;-76
2022/05/01 00:13:21;;;;;;;11.57;9.38;;;6.10;99.90;;;;;;5049937;28;20086;-77
2022/05/01 00:15:46;;;;;;;11.55;8.57;;;5.70;99.90;;;;;;5048906;28;20043;-77
2022/05/01 00:18:12;;;;;;;10.97;8.73;;;5.70;99.90;;;;;;5048966;28;20045;-77
2022/05/01 00:20:38;;;;;;;9.97;8.37;;;5.60;99.90;;;;;;5041804;28;20326;-76
2022/05/01 00:23:03;;;;;;;12.70;9.17;;;5.70;99.90;;;;;;5031266;28;20127;-77
2022/05/01 00:25:30;;;;;;;11.60;9.50;;;5.60;99.90;;;;;;5045085;28;20045;-77
2022/05/01 00:27:56;;;;;;;13.73;8.55;;;5.60;99.90;;;;;;5040568;28;20420;-77
2022/05/01 00:30:21;;;;;;;10.27;8.00;;;5.60;99.90;;;;;;5041912;28;20045;-77
2022/05/01 00:38:15;;;;;;;11.90;8.60;;;5.50;99.90;;;;;;5067920;28;20047;-77
2022/05/01 00:40:41;;;;;;;12.93;9.20;;;5.50;99.90;;;;;;5033239;28;20460;-77
2022/05/01 00:43:07;;;;;;;11.53;9.17;;;5.40;99.90;;;;;;5049441;28;20430;-77
2022/05/01 00:45:33;;;;;;;10.82;9.05;;;5.50;99.90;;;;;;5049104;28;20049;-77
2022/05/01 00:47:58;;;;;;;11.40;8.55;;;5.50;99.90;;;;;;5050803;28;20488;-76
2022/05/01 00:50:25;;;;;;;11.20;8.93;;;5.50;99.90;;;;;;5035302;28;20190;-78
2022/05/01 00:52:52;;;;;;;9.60;8.35;;;5.40;99.90;;;;;;5051338;28;20044;-77
2022/05/01 00:55:18;;;;;;;10.05;8.65;;;5.40;99.90;;;;;;5048688;28;20041;-76
2022/05/01 00:57:47;;;;;;;10.23;7.85;;;5.30;99.90;;;;;;5048720;28;20037;-76
2022/05/01 01:00:16;;;;;;;9.50;7.95;;;5.40;99.90;;;;;;5049381;28;20041;-76
2022/05/01 01:02:42;;;;;;;10.75;8.25;;;5.30;99.90;;;;;;5051930;28;20068;-76
2022/05/01 01:05:09;;;;;;;8.77;7.88;;;5.20;99.90;;;;;;5048462;28;20084;-76
2022/05/01 01:07:35;;;;;;;10.75;8.73;;;5.20;99.90;;;;;;5052121;28;20040;-76
2022/05/01 01:10:01;;;;;;;12.50;8.73;;;5.10;99.90;;;;;;5052988;28;20047;-77
2022/05/01 01:15:11;;;;;;;9.20;7.95;;;5.10;99.90;;;;;;5071616;28;20392;-77
2022/05/01 01:17:41;;;;;;;318.17;17.55;;;5.10;99.90;;;;;;5052957;28;20104;-77
2022/05/01 01:20:28;;;;;;;163.63;14.35;;;5.30;99.90;;;;;;5052018;28;20032;-77
2022/05/01 01:23:01;;;;;;;180.03;13.17;;;5.10;99.90;;;;;;5040913;28;20043;-77
2022/05/01 01:25:29;;;;;;;303.88;17.35;;;5.10;99.90;;;;;;5051031;28;20414;-77
2022/05/01 01:27:59;;;;;;;263.17;14.77;;;6.10;99.90;;;;;;5037195;28;20115;-77
2022/05/01 01:33:10;;;;;;;252.55;13.07;;;4.80;99.90;;;;;;5045251;28;20495;-77
2022/05/01 01:35:39;;;;;;;196.43;11.77;;;4.80;99.90;;;;;;5042777;28;20045;-77
2022/05/01 01:38:05;;;;;;;194.80;12.10;;;4.70;99.90;;;;;;5060781;28;20116;-77
2022/05/01 01:40:37;;;;;;;104.35;8.30;;;4.60;99.90;;;;;;5052040;28;20119;-77
2022/05/01 01:43:05;;;;;;;161.88;10.57;;;4.50;99.90;;;;;;5069936;28;20550;-77
2022/05/01 01:45:31;;;;;;;211.98;11.70;;;4.40;99.90;;;;;;5051617;28;20047;-76
2022/05/01 01:48:13;;;;;;;201.07;12.18;;;4.40;99.90;;;;;;5035670;28;20507;-77
2022/05/01 01:50:39;;;;;;;216.07;12.50;;;4.40;99.90;;;;;;5052163;28;20040;-77
2022/05/01 01:53:06;;;;;;;108.53;8.93;;;4.30;99.90;;;;;;5054925;28;20106;-77
2022/05/01 01:55:31;;;;;;;145.70;9.55;;;4.30;99.90;;;;;;5054031;28;20356;-77
2022/05/01 01:57:57;;;;;;;129.32;9.27;;;4.30;99.90;;;;;;5053773;28;20037;-76
2022/05/01 02:00:23;;;;;;;146.77;10.50;;;4.20;99.90;;;;;;5051528;28;20055;-76
2022/05/01 02:02:55;;;;;;;153.80;10.25;;;4.20;99.90;;;;;;5053903;28;20047;-76
2022/05/01 02:05:21;;;;;;;159.18;11.60;;;4.20;99.90;;;;;;5051257;28;20115;-77
2022/05/01 02:07:46;;;;;;;212.40;13.13;;;4.10;99.90;;;;;;5053199;28;20128;-76
2022/05/01 02:10:12;;;;;;;128.97;10.57;;;4.10;99.90;;;;;;5053551;28;20041;-77
2022/05/01 02:12:38;;;;;;;44.90;6.70;;;4.00;99.90;;;;;;5052256;28;20538;-77
2022/05/01 02:15:04;;;;;;;25.43;6.37;;;4.10;99.90;;;;;;5053790;28;20484;-76
2022/05/01 02:17:30;;;;;;;29.40;6.70;;;4.00;99.90;;;;;;5054333;28;20742;-76
2022/05/01 02:19:55;;;;;;;35.53;7.30;;;4.00;99.90;;;;;;5052444;28;20110;-77
2022/05/01 02:22:22;;;;;;;104.80;10.80;;;4.00;99.90;;;;;;5049953;28;20045;-76
2022/05/01 02:24:48;;;;;;;187.48;13.32;;;4.00;99.90;;;;;;5054396;28;20048;-77
2022/05/01 02:27:14;;;;;;;176.98;13.35;;;4.50;99.90;;;;;;5033868;28;20048;-77
2022/05/01 02:29:42;;;;;;;229.90;13.90;;;4.10;99.90;;;;;;5034628;28;20055;-77
2022/05/01 02:32:07;;;;;;;260.45;15.65;;;4.80;99.90;;;;;;5051383;28;20279;-78
2022/05/01 02:34:33;;;;;;;251.97;16.27;;;3.90;99.90;;;;;;5053938;28;20719;-77
2022/05/01 02:36:59;;;;;;;243.20;15.40;;;3.90;99.90;;;;;;5054626;28;20355;-77
2022/05/01 02:39:25;;;;;;;175.57;14.82;;;4.20;99.90;;;;;;5035238;28;20473;-77
2022/05/01 02:41:51;;;;;;;158.07;14.25;;;3.90;99.90;;;;;;5043462;28;20049;-77
2022/05/01 02:44:16;;;;;;;194.45;15.52;;;3.80;99.90;;;;;;5019124;28;20051;-77
2022/05/01 02:46:42;;;;;;;133.27;11.90;;;3.80;99.90;;;;;;5044026;28;20485;-76
2022/05/01 02:49:08;;;;;;;176.83;14.83;;;3.70;99.90;;;;;;5044874;28;20044;-77
2022/05/01 02:51:34;;;;;;;302.17;19.17;;;3.80;99.90;;;;;;5045572;28;20366;-77
2022/05/01 02:54:04;;;;;;;218.85;14.95;;;3.70;99.90;;;;;;5046377;28;20759;-77
2022/05/01 02:56:30;;;;;;;182.63;14.18;;;3.60;99.90;;;;;;5037316;28;20052;-77
2022/05/01 02:58:57;;;;;;;;;;;3.60;99.90;;;;;;5042559;28;20492;-76
2022/05/01 03:01:23;;;;;;;196.05;14.57;;;3.90;99.90;;;;;;5053455;28;19924;-77
2022/05/01 03:03:49;;;;;;;310.05;17.67;;;3.80;99.90;;;;;;5051658;28;20467;-76
2022/05/01 03:06:15;;;;;;;302.23;18.58;;;3.40;99.90;;;;;;5053408;28;20052;-77
2022/05/01 03:08:40;;;;;;;259.65;17.05;;;3.40;99.90;;;;;;5050351;28;20231;-76
2022/05/01 03:11:06;;;;;;;324.07;18.43;;;3.50;99.90;;;;;;5052897;28;20090;-77
2022/05/01 03:13:32;;;;;;;258.80;18.23;;;3.40;99.90;;;;;;5050139;28;20048;-77
2022/05/01 03:15:57;;;;;;;433.03;30.10;;;3.40;99.90;;;;;;5051780;28;20072;-77
2022/05/01 03:23:51;;;;;;;182.48;15.93;;;3.40;99.90;;;;;;5045739;28;20040;-77
2022/05/01 03:26:18;;;;;;;271.85;18.08;;;3.40;99.90;;;;;;5046001;28;20044;-76
2022/05/01 03:28:44;;;;;;;254.07;21.30;;;4.00;99.90;;;;;;5052632;28;20041;-77
2022/05/01 03:31:12;;;;;;;137.65;13.30;;;3.40;99.90;;;;;;5052928;28;20404;-77
2022/05/01 03:33:37;;;;;;;124.32;13.30;;;3.40;99.90;;;;;;5053087;28;20440;-77
2022/05/01 03:36:07;;;;;;;122.25;13.05;;;4.10;99.90;;;;;;5051715;28;20053;-76
2022/05/01 03:38:36;;;;;;;248.07;20.58;;;3.40;99.90;;;;;;5052333;28;20080;-77
2022/05/01 03:41:05;;;;;;;353.00;23.95;;;4.40;99.90;;;;;;5051290;28;20037;-76
2022/05/01 03:43:32;;;;;;;247.25;21.20;;;3.40;99.90;;;;;;5033236;28;20358;-77
2022/05/01 03:45:58;;;;;;;73.38;11.75;;;3.40;99.90;;;;;;5051631;28;20040;-77
2022/05/01 03:48:24;;;;;;;25.20;9.43;;;3.30;99.90;;;;;;5051381;28;20044;-76
2022/05/01 03:50:51;;;;;;;15.48;9.00;;;3.30;99.90;;;;;;5050913;28;20044;-76
2022/05/01 03:53:17;;;;;;;9.85;8.45;;;3.30;99.90;;;;;;5043210;28;20052;-77
2022/05/01 03:55:43;;;;;;;52.58;11.82;;;3.30;99.90;;;;;;5040223;28;20036;-78
2022/05/01 03:58:08;;;;;;;23.17;8.70;;;3.40;99.90;;;;;;5046800;28;20084;-77
2022/05/01 04:00:35;;;;;;;9.40;8.20;;;3.50;99.90;;;;;;5038037;28;20773;-77
2022/05/01 04:03:00;;;;;;;122.28;12.77;;;3.30;99.90;;;;;;5037776;28;20049;-78
2022/05/01 04:05:26;;;;;;;193.32;14.15;;;3.30;99.90;;;;;;5048107;28;20037;-77
2022/05/01 04:07:52;;;;;;;80.22;12.30;;;3.20;99.90;;;;;;5038231;28;20120;-78
2022/05/01 04:10:18;;;;;;;133.20;14.07;;;3.20;99.90;;;;;;5045682;28;20568;-77
2022/05/01 04:12:45;;;;;;;75.18;11.98;;;3.20;99.90;;;;;;5029251;28;20335;-77
2022/05/01 04:15:15;;;;;;;120.28;14.00;;;3.80;99.90;;;;;;5044738;28;20124;-76
2022/05/01 04:17:41;;;;;;;76.68;12.10;;;3.20;99.90;;;;;;5036538;28;20044;-77
2022/05/01 04:20:13;;;;;;;150.98;14.60;;;3.60;99.90;;;;;;5039521;28;21501;-77
2022/05/01 04:22:49;;;;;;;96.22;12.60;;;3.70;99.90;;;;;;5040060;28;20051;-77
2022/05/01 04:25:20;;;;;;;148.52;13.57;;;3.10;99.90;;;;;;5047470;28;20033;-76
2022/05/01 04:27:53;;;;;;;68.60;10.95;;;3.50;99.90;;;;;;5049206;28;20055;-77
2022/05/01 04:30:20;;;;;;;140.07;13.10;;;3.10;99.90;;;;;;5049561;28;20047;-77
2022/05/01 04:32:46;;;;;;;94.25;11.55;;;3.10;99.90;;;;;;5032549;28;20037;-77
2022/05/01 04:35:12;;;;;;;95.03;11.90;;;3.10;99.90;;;;;;5050066;28;20040;-77
2022/05/01 04:37:38;;;;;;;92.13;11.43;;;3.10;99.90;;;;;;5070164;28;20112;-77
2022/05/01 04:40:04;;;;;;;28.63;9.13;;;3.20;99.90;;;;;;5038850;28;20434;-77
2022/05/01 04:42:30;;;;;;;16.50;8.25;;;3.20;99.90;;;;;;5034645;28;20045;-77
2022/05/01 04:44:56;;;;;;;24.90;8.05;;;3.20;99.90;;;;;;5048016;28;20051;-77
2022/05/01 04:47:22;;;;;;;106.25;11.55;;;3.20;99.90;;;;;;5053404;28;20047;-76
2022/05/01 04:49:50;;;;;;;60.67;9.93;;;3.20;99.90;;;;;;5037959;28;20036;-77
2022/05/01 04:52:15;;;;;;;53.08;9.82;;;3.20;99.90;;;;;;5053831;28;20043;-76
2022/05/01 04:54:41;;;;;;;86.97;11.00;;;3.20;99.90;;;;;;5052609;28;20037;-77
2022/05/01 04:57:09;;;;;;;37.10;9.35;;;3.20;99.90;;;;;;5056117;28;21082;-77
2022/05/01 04:59:37;;;;;;;11.93;8.00;;;3.20;99.90;;;;;;5053981;28;20476;-77
2022/05/01 05:02:03;;;;;;;24.45;8.88;;;3.50;99.90;;;;;;5048662;28;20072;-77
2022/05/01 05:04:29;;;;;;;14.48;8.55;;;3.30;99.90;;;;;;5049746;28;20040;-77
2022/05/01 05:06:55;;;;;;;35.80;9.73;;;3.40;99.90;;;;;;5040884;28;20068;-78
2022/05/01 05:12:07;;;;;;;46.20;9.77;;;3.40;99.90;;;;;;5050866;28;20043;-77
2022/05/01 05:14:33;;;;;;;25.15;8.43;;;3.60;99.90;;;;;;5043254;28;20036;-77
2022/05/01 05:17:00;;;;;;;;;;;3.60;99.90;;;;;;5033215;28;20054;-77
2022/05/01 05:19:26;;;;;;;9.13;8.23;;;3.80;99.90;;;;;;5047590;28;19920;-77
2022/05/01 05:21:52;;;;;;;7.78;6.97;;;3.80;99.90;;;;;;5045642;28;20854;-77
2022/05/01 05:24:18;;;;;;;7.73;7.03;;;3.90;99.90;;;;;;5053175;28;20119;-77
2022/05/01 05:26:43;;;;;;;8.38;7.57;;;4.10;99.90;;;;;;5051931;28;20049;-77
2022/05/01 05:29:09;;;;;;;8.70;7.83;;;4.60;99.90;;;;;;5054620;28;20049;-77
2022/05/01 05:31:35;;;;;;;10.97;8.40;;;4.30;99.90;;;;;;5052621;28;20496;-78
2022/05/01 05:34:00;;;;;;;8.88;8.02;;;4.60;99.90;;;;;;5054470;28;20344;-77
2022/05/01 05:36:26;;;;;;;10.45;8.20;;;4.50;99.90;;;;;;5051902;28;20424;-77
2022/05/01 05:38:52;;;;;;;14.20;8.00;;;4.70;99.90;;;;;;5053172;28;20105;-77
2022/05/01 05:41:18;;;;;;;11.43;8.37;;;4.80;99.90;;;;;;5054686;28;20283;-77
2022/05/01 05:43:43;;;;;;;13.30;10.27;;;5.00;99.90;;;;;;5052408;28;20966;-76
2022/05/01 05:46:09;;;;;;;10.80;9.70;;;5.20;99.90;;;;;;5046600;28;20139;-77
2022/05/01 05:48:37;;;;;;;10.53;9.07;;;5.80;99.90;;;;;;5018759;28;20037;-77
2022/05/01 05:51:04;;;;;;;9.77;8.52;;;5.50;99.90;;;;;;5054777;28;20159;-76
2022/05/01 05:53:30;;;;;;;10.73;9.63;;;5.70;99.90;;;;;;5054811;28;20040;-78
2022/05/01 05:55:56;;;;;;;11.27;9.40;;;5.90;99.90;;;;;;5037988;28;20040;-77
2022/05/01 05:58:21;;;;;;;10.32;8.88;;;6.10;99.90;;;;;;5051011;28;20146;-77
2022/05/01 06:00:47;;;;;;;11.63;10.13;;;6.20;99.90;;;;;;5051590;28;20160;-77
2022/05/01 06:03:13;;;;;;;10.32;9.32;;;6.40;99.90;;;;;;5055149;28;20042;-77
2022/05/01 06:05:39;;;;;;;10.00;8.82;;;6.60;99.90;;;;;;5054403;28;20044;-77
2022/05/01 06:08:05;;;;;;;10.32;9.32;;;7.00;99.90;;;;;;5051445;28;20077;-76
2022/05/01 06:10:31;;;;;;;11.50;9.40;;;6.80;99.90;;;;;;5035276;28;20040;-77
2022/05/01 06:12:57;;;;;;;10.18;8.80;;;7.00;99.90;;;;;;5055055;28;20037;-78
2022/05/01 06:15:22;;;;;;;10.05;9.02;;;7.10;99.90;;;;;;5054902;28;20090;-77
2022/05/01 06:17:50;;;;;;;13.93;8.57;;;7.30;99.90;;;;;;5047043;28;20036;-77
2022/05/01 06:20:15;;;;;;;10.77;8.25;;;7.70;99.90;;;;;;5044569;28;20036;-77
2022/05/01 06:22:41;;;;;;;8.30;7.40;;;8.10;99.90;;;;;;5041978;28;20544;-77
2022/05/01 06:25:07;;;;;;;8.13;7.32;;;8.60;99.90;;;;;;5049959;28;20032;-77
2022/05/01 06:27:33;;;;;;;8.80;7.90;;;8.80;99.90;;;;;;5037531;28;20052;-77
2022/05/01 06:29:59;;;;;;;9.57;7.28;;;9.10;99.90;;;;;;5029720;28;20052;-76
2022/05/01 06:32:25;;;;;;;8.40;6.93;;;9.40;99.90;;;;;;5042160;28;20077;-76
2022/05/01 06:34:52;;;;;;;7.78;6.97;;;9.70;99.90;;;;;;5046541;28;20040;-77
2022/05/01 06:37:18;;;;;;;7.78;6.90;;;10.10;99.90;;;;;;5019334;28;20186;-78
2022/05/01 06:39:43;;;;;;;8.73;7.53;;;10.40;99.90;;;;;;5041190;28;20123;-76
2022/05/01 06:42:10;;;;;;;8.07;6.45;;;10.80;99.90;;;;;;5046858;28;20290;-79
2022/05/01 06:44:35;;;;;;;8.13;6.63;;;11.20;99.90;;;;;;5043058;28;20048;-78
2022/05/01 06:47:02;;;;;;;7.95;6.50;;;11.40;99.90;;;;;;5040449;28;20085;-77
2022/05/01 06:49:27;;;;;;;9.40;6.15;;;11.70;99.90;;;;;;5042619;28;20094;-78
2022/05/01 06:51:53;;;;;;;6.93;6.18;;;11.90;99.90;;;;;;5032289;28;20123;-77
2022/05/01 06:54:19;;;;;;;7.60;5.90;;;12.20;99.90;;;;;;5024884;28;20040;-78
2022/05/01 06:56:44;;;;;;;8.23;5.75;;;12.60;99.90;;;;;;5042331;28;20283;-77
2022/05/01 06:59:11;;;;;;;7.65;5.18;;;12.90;99.90;;;;;;5042187;28;20044;-77
2022/05/01 07:01:36;;;;;;;6.43;5.45;;;12.90;99.90;;;;;;5045724;28;20338;-78
2022/05/01 07:04:02;;;;;;;6.47;5.70;;;13.20;99.90;;;;;;5046649;28;20074;-76
2022/05/01 07:06:28;;;;;;;6.38;5.32;;;13.30;99.90;;;;;;5042033;28;20041;-75
2022/05/01 07:08:53;;;;;;;7.63;5.25;;;13.50;99.90;;;;;;5047992;28;20047;-77
2022/05/01 07:11:19;;;;;;;7.05;5.63;;;13.60;99.90;;;;;;5048311;28;20049;-77
2022/05/01 07:13:45;;;;;;;8.68;4.75;;;13.50;99.90;;;;;;5063166;28;20028;-77
2022/05/01 07:16:10;;;;;;;9.18;5.63;;;13.80;99.90;;;;;;5041319;28;20040;-78
2022/05/01 07:18:36;;;;;;;7.10;5.15;;;14.20;99.90;;;;;;5026830;28;20086;-79
2022/05/01 07:21:02;;;;;;;7.68;4.80;;;14.40;99.90;;;;;;5043737;28;20066;-77
2022/05/01 07:23:28;;;;;;;5.72;4.75;;;14.70;99.90;;;;;;5027241;28;20048;-77
2022/05/01 07:25:54;;;;;;;6.50;4.20;;;14.80;99.90;;;;;;5051062;28;20053;-76
2022/05/01 07:28:19;;;;;;;6.95;4.85;;;14.60;99.90;;;;;;5040287;28;20088;-77
2022/05/01 07:30:45;;;;;;;5.70;4.65;;;14.70;99.90;;;;;;5040346;28;20385;-77
2022/05/01 07:33:11;;;;;;;7.07;4.65;;;15.00;99.90;;;;;;5038000;28;20076;-77
2022/05/01 07:35:37;;;;;;;7.93;4.80;;;15.00;99.90;;;;;;5039065;28;20094;-77
2022/05/01 07:38:04;;;;;;;6.55;4.82;;;14.40;99.90;;;;;;5032839;28;20037;-78
2022/05/01 07:40:29;;;;;;;5.85;4.75;;;14.00;99.90;;;;;;5032629;28;20045;-78
2022/05/01 07:42:55;;;;;;;6.88;4.32;;;14.10;99.90;;;;;;5036664;28;20595;-77
2022/05/01 07:45:21;;;;;;;6.47;4.57;;;14.20;99.90;;;;;;5027825;28;20033;-77
2022/05/01 07:47:46;;;;;;;5.97;5.20;;;13.80;99.90;;;;;;5042758;28;20033;-79
2022/05/01 07:50:13;;;;;;;8.35;4.93;;;13.50;99.90;;;;;;5031849;28;20487;-77
2022/05/01 07:52:39;;;;;;;6.78;4.13;;;13.30;99.90;;;;;;5039917;28;20042;-77
2022/05/01 07:55:06;;;;;;;5.60;4.35;;;13.00;99.90;;;;;;5032443;28;20033;-77
2022/05/01 07:57:32;;;;;;;6.13;4.07;;;12.90;99.90;;;;;;5030451;28;20048;-78
2022/05/01 07:59:57;;;;;;;6.80;4.60;;;13.00;99.90;;;;;;5016517;28;20048;-77
2022/05/01 08:02:23;;;;;;;8.00;4.88;;;12.90;99.90;;;;;;5040719;28;20053;-78
2022/05/01 08:04:49;;;;;;;5.00;3.50;;;13.00;99.90;;;;;;5039865;28;20103;-78
2022/05/01 08:07:15;;;;;;;7.78;4.28;;;13.40;99.90;;;;;;5038002;28;20112;-78
2022/05/01 08:09:41;;;;;;;5.38;4.30;;;13.80;99.90;;;;;;5041202;28;20094;-78
2022/05/01 08:12:07;;;;;;;5.00;4.05;;;14.00;99.90;;;;;;5037236;28;20481;-77
2022/05/01 08:14:33;;;;;;;5.68;4.15;;;14.30;99.90;;;;;;5043480;28;20144;-77
2022/05/01 08:16:58;;;;;;;5.82;3.72;;;14.60;99.90;;;;;;5039906;28;20517;-76
2022/05/01 08:22:08;;;;;;;5.05;3.75;;;15.20;99.90;;;;;;5043630;28;20045;-77
2022/05/01 08:24:35;;;;;;;5.30;4.00;;;15.50;99.90;;;;;;5045490;28;20485;-78
2022/05/01 08:27:07;;;;;;;;;;;15.90;99.90;;;;;;5030986;28;20076;-77
2022/05/01 08:29:39;;;;;;;5.57;3.03;;;15.50;99.90;;;;;;5064881;28;19951;-77
2022/05/01 08:32:06;;;;;;;5.25;3.05;;;15.20;99.90;;;;;;5049089;28;20032;-77
2022/05/01 08:34:31;;;;;;;4.70;2.80;;;15.50;99.90;;;;;;5045813;28;20091;-78
2022/05/01 08:36:57;;;;;;;5.28;3.13;;;15.80;99.90;;;;;;5030305;28;20501;-77
2022/05/01 08:39:23;;;;;;;4.43;3.30;;;15.90;99.90;;;;;;5055886;28;20032;-77
2022/05/01 08:41:49;;;;;;;5.28;3.50;;;16.10;99.90;;;;;;5034209;28;20040;-77
2022/05/01 08:44:17;;;;;;;4.50;2.90;;;15.80;99.90;;;;;;5053463;28;20040;-78
2022/05/01 08:46:59;;;;;;;3.63;2.92;;;15.50;99.90;;;;;;5048509;28;20037;-77
2022/05/01 08:49:26;;;;;;;6.85;2.95;;;15.50;99.90;;;;;;5052270;28;20037;-78
2022/05/01 08:51:52;;;;;;;4.95;3.00;;;15.30;99.90;;;;;;5054056;28;20155;-76
2022/05/01 08:54:18;;;;;;;4.85;3.20;;;15.40;99.90;;;;;;5055400;28;20036;-77
2022/05/01 08:56:45;;;;;;;7.20;3.65;;;15.30;99.90;;;;;;5055928;28;20036;-77
2022/05/01 08:59:17;;;;;;;5.97;3.58;;;15.30;99.90;;;;;;5054669;28;20040;-78
2022/05/01 09:01:45;;;;;;;4.78;3.55;;;15.00;99.90;;;;;;5045737;28;20032;-78
2022/05/01 09:04:14;;;;;;;5.20;3.42;;;14.60;99.90;;;;;;5048885;28;20037;-77
2022/05/01 09:06:45;;;;;;;5.60;3.55;;;14.60;99.90;;;;;;5045869;28;20037;-77
2022/05/01 09:09:21;;;;;;;6.57;3.97;;;14.90;99.90;;;;;;5049027;28;20095;-78
2022/05/01 09:14:38;;;;;;;5.47;3.85;;;15.40;99.90;;;;;;5060509;28;20392;-78
2022/05/01 09:17:24;;;;;;;5.45;3.80;;;15.90;99.90;;;;;;5047349;28;20040;-77
2022/05/01 09:19:53;;;;;;;4.82;3.30;;;16.10;99.90;;;;;;5043159;28;20045;-76
2022/05/01 09:22:20;;;;;;;5.03;3.67;;;16.30;99.90;;;;;;5046089;28;20063;-77
2022/05/01 09:24:52;;;;;;;5.47;3.70;;;16.20;99.90;;;;;;5045180;28;20125;-78
2022/05/01 09:27:32;;;;;;;5.75;3.70;;;16.40;99.90;;;;;;5044014;28;20393;-78
2022/05/01 09:30:32;;;;;;;6.10;3.58;;;16.70;99.90;;;;;;5058461;28;20055;-78
2022/05/01 09:32:58;;;;;;;4.35;3.42;;;16.80;99.90;;;;;;5047748;28;20059;-78
2022/05/01 09:35:31;;;;;;;6.43;3.58;;;16.80;99.90;;;;;;5052167;28;20037;-78
2022/05/01 09:38:24;;;;;;;4.97;3.17;;;16.80;99.90;;;;;;5052250;28;20064;-76
2022/05/01 09:40:52;;;;;;;4.78;3.45;;;17.00;99.60;;;;;;5045898;28;20499;-77
2022/05/01 09:43:43;;;;;;;5.32;3.42;;;17.00;99.90;;;;;;5055587;28;20036;-78
2022/05/01 09:46:12;;;;;;;5.47;3.33;;;17.00;99.90;;;;;;5049076;28;20041;-77
2022/05/01 09:48:38;;;;;;;5.63;3.20;;;17.10;99.90;;;;;;5048103;28;20060;-78
2022/05/01 09:51:18;;;;;;;4.78;3.20;;;17.10;99.80;;;;;;5050279;28;20041;-77
2022/05/01 09:53:45;;;;;;;4.65;3.20;;;17.10;99.40;;;;;;5031256;28;20533;-77
2022/05/01 09:56:11;;;;;;;5.53;3.20;;;16.70;98.80;;;;;;5046962;28;20040;-78
2022/05/01 09:58:43;;;;;;;4.07;3.13;;;16.70;99.00;;;;;;5052520;28;20045;-78
2022/05/01 10:01:11;;;;;;;4.93;3.38;;;16.50;98.70;;;;;;5045132;28;20119;-78
2022/05/01 10:03:48;;;;;;;3.83;2.88;;;16.70;99.20;;;;;;5047267;28;20076;-77
2022/05/01 10:06:15;;;;;;;5.80;3.30;;;16.80;98.90;;;;;;5052044;28;20115;-77
2022/05/01 10:08:43;;;;;;;4.60;2.80;;;16.80;99.40;;;;;;5054671;28;20037;-79
2022/05/01 10:11:14;;;;;;;4.25;3.20;;;17.00;98.20;;;;;;5051848;28;20043;-78
2022/05/01 10:13:40;;;;;;;4.93;3.30;;;16.90;98.60;;;;;;5052680;28;20036;-78
2022/05/01 10:16:10;;;;;;;4.05;3.58;;;17.30;98.90;;;;;;5054240;28;20032;-77
2022/05/01 10:18:37;;;;;;;6.60;3.38;;;17.40;97.80;;;;;;5052378;28;20064;-78
2022/05/01 10:21:04;;;;;;;4.65;2.80;;;17.40;96.80;;;;;;5049733;28;20044;-77
2022/05/01 10:23:31;;;;;;;4.38;3.10;;;17.50;98.20;;;;;;5054807;28;20036;-78
2022/05/01 10:25:59;;;;;;;;;;;17.60;98.30;;;;;;5052724;28;20548;-78
2022/05/01 10:28:31;;;;;;;4.50;2.90;;;17.70;97.00;;;;;;5061230;28;20332;-77
2022/05/01 10:34:28;;;;;;;4.88;2.72;;;18.10;97.40;;;;;;5068554;28;20128;-78
2022/05/01 10:37:24;;;;;;;5.53;2.85;;;18.60;97.60;;;;;;5051756;28;20051;-77
2022/05/01 10:39:50;;;;;;;4.28;2.67;;;18.60;96.20;;;;;;5046139;28;20048;-78
2022/05/01 10:42:42;;;;;;;5.35;3.10;;;18.20;96.20;;;;;;5042591;28;20052;-78
2022/05/01 10:45:28;;;;;;;4.22;2.95;;;18.00;95.90;;;;;;5069675;28;20042;-77
2022/05/01 10:47:55;;;;;;;6.07;3.25;;;17.20;95.80;;;;;;5048358;28;20052;-77
2022/05/01 10:50:22;;;;;;;6.32;3.30;;;17.30;96.90;;;;;;5044202;28;20047;-77
2022/05/01 10:53:04;;;;;;;5.03;2.70;;;17.20;96.40;;;;;;5043736;28;20106;-77
2022/05/01 10:55:48;;;;;;;3.88;2.92;;;17.50;97.20;;;;;;5051544;28;20488;-76
2022/05/01 10:58:28;;;;;;;5.60;2.90;;;17.50;97.40;;;;;;5070153;28;20036;-77
2022/05/01 11:00:56;;;;;;;3.67;2.97;;;17.50;97.00;;;;;;5036429;28;20073;-78
2022/05/01 11:03:36;;;;;;;4.72;2.90;;;17.50;97.10;;;;;;5043815;28;20097;-77
2022/05/01 11:06:02;;;;;;;4.10;2.90;;;17.70;96.30;;;;;;5044955;28;20493;-77
2022/05/01 11:08:32;;;;;;;4.65;2.78;;;17.80;96.00;;;;;;5046777;28;20037;-77
2022/05/01 11:10:59;;;;;;;5.13;3.10;;;18.40;96.40;;;;;;5050429;28;20040;-77
2022/05/01 11:13:33;;;;;;;4.97;3.03;;;18.30;95.70;;;;;;5052842;28;20473;-77
2022/05/01 11:15:59;;;;;;;4.10;3.15;;;18.40;95.20;;;;;;5031957;28;20049;-77
2022/05/01 11:18:50;;;;;;;5.93;3.30;;;18.30;95.20;;;;;;5052067;28;20041;-77
2022/05/01 11:21:21;;;;;;;5.53;3.33;;;18.50;94.80;;;;;;5043415;28;20049;-77
2022/05/01 11:24:00;;;;;;;6.97;3.00;;;18.50;94.40;;;;;;5051285;28;20048;-77
2022/05/01 11:26:26;;;;;;;4.18;3.45;;;18.30;94.70;;;;;;5052897;28;20048;-77
2022/05/01 11:28:53;;;;;;;;;;;18.30;95.10;;;;;;5052658;28;20139;-77
2022/05/01 11:31:48;;;;;;;6.00;3.38;;;18.50;93.90;;;;;;5066908;28;19924;-78
2022/05/01 11:34:18;;;;;;;3.97;2.92;;;18.40;94.70;;;;;;5033406;28;20045;-78
2022/05/01 11:36:51;;;;;;;6.85;2.80;;;18.30;93.90;;;;;;5051416;28;20561;-76
2022/05/01 11:39:16;;;;;;;4.85;2.80;;;18.30;93.70;;;;;;5050592;28;20040;-77
2022/05/01 11:41:42;;;;;;;4.88;3.50;;;18.60;94.60;;;;;;5052197;28;20040;-78
2022/05/01 11:44:23;;;;;;;4.88;2.63;;;18.80;95.20;;;;;;5053040;28;20036;-77
2022/05/01 11:46:49;;;;;;;4.47;3.00;;;18.70;95.20;;;;;;5050062;28;20082;-77
2022/05/01 11:49:15;;;;;;;;;;;19.10;94.30;;;;;;5052386;28;20036;-77
2022/05/01 11:51:41;;;;;;;3.90;2.83;;;19.20;93.90;;;;;;5033105;28;19923;-77
2022/05/01 11:54:10;;;;;;;3.85;2.60;;;19.60;93.40;;;;;;5050477;28;20050;-77
2022/05/01 12:04:49;;;;;;;4.80;3.05;;;19.70;93.40;;;;;;5065390;28;20044;-78
2022/05/01 12:07:19;;;;;;;4.45;2.78;;;19.90;91.90;;;;;;5050411;28;20484;-77
2022/05/01 12:09:48;;;;;;;3.95;2.80;;;19.60;91.70;;;;;;5049916;28;20439;-77
2022/05/01 12:12:19;;;;;;;5.18;2.85;;;19.70;92.20;;;;;;5051391;28;20028;-76
2022/05/01 12:14:46;;;;;;;4.53;2.58;;;20.10;92.00;;;;;;5043215;28;20045;-77
2022/05/01 12:17:18;;;;;;;4.78;2.65;;;20.00;91.80;;;;;;5047468;28;20086;-77
2022/05/01 12:19:47;;;;;;;4.55;2.60;;;20.30;91.50;;;;;;5042233;28;20062;-77
2022/05/01 12:22:15;;;;;;;3.53;2.45;;;20.50;90.50;;;;;;5045951;28;20040;-77
2022/05/01 12:24:43;;;;;;;3.90;2.60;;;20.40;89.50;;;;;;5040434;28;20083;-77
2022/05/01 12:27:09;;;;;;;3.72;2.65;;;20.50;88.40;;;;;;5042242;28;20045;-77
2022/05/01 12:29:38;;;;;;;3.67;2.33;;;20.20;88.50;;;;;;5041289;28;20044;-77
2022/05/01 12:32:10;;;;;;;4.97;2.90;;;20.30;88.10;;;;;;5042405;28;20136;-78
2022/05/01 12:34:48;;;;;;;3.50;2.00;;;19.90;88.50;;;;;;5020033;28;20079;-78
2022/05/01 12:37:22;;;;;;;4.80;2.30;;;20.30;86.30;;;;;;5040537;28;20045;-77
2022/05/01 12:40:02;;;;;;;3.28;1.90;;;20.00;85.30;;;;;;5034721;28;20052;-78
2022/05/01 12:45:16;;;;;;;3.35;2.00;;;19.30;86.60;;;;;;5064815;28;20087;-77
2022/05/01 12:47:53;;;;;;;3.45;2.08;;;19.50;85.50;;;;;;5049369;28;20044;-77
2022/05/01 12:50:18;;;;;;;3.08;2.03;;;19.90;84.80;;;;;;5049538;28;20040;-77
2022/05/01 12:52:46;;;;;;;2.65;1.90;;;20.00;86.20;;;;;;5052423;28;20044;-77
2022/05/01 12:55:16;;;;;;;3.03;1.80;;;20.20;84.70;;;;;;5049775;28;20155;-77
2022/05/01 12:57:48;;;;;;;2.85;1.83;;;20.10;83.40;;;;;;5047377;28;20411;-77
2022/05/01 13:00:37;;;;;;;3.30;1.73;;;19.80;83.40;;;;;;5049675;28;20507;-76
2022/05/01 13:03:19;;;;;;;2.08;1.67;;;19.90;83.00;;;;;;5047333;28;20086;-77
2022/05/01 13:06:06;;;;;;;3.53;1.80;;;20.40;84.20;;;;;;5051839;28;20050;-78
2022/05/01 13:08:34;;;;;;;;;;;20.20;83.50;;;;;;5039668;28;20070;-77
2022/05/01 13:11:16;;;;;;;2.97;2.05;;;20.40;85.10;;;;;;5054045;28;20000;-77
2022/05/01 13:13:44;;;;;;;2.42;2.10;;;20.10;85.30;;;;;;5036242;28;20042;-78
2022/05/01 13:16:11;;;;;;;3.05;2.25;;;19.60;83.80;;;;;;5069618;28;20385;-76
2022/05/01 13:18:37;;;;;;;3.38;1.98;;;19.20;84.70;;;;;;5054336;28;20071;-78
2022/05/01 13:21:03;;;;;;;3.45;2.10;;;19.30;84.20;;;;;;5052931;28;20040;-77
2022/05/01 13:23:29;;;;;;;4.10;2.33;;;19.20;85.50;;;;;;5045450;28;20049;-76
2022/05/01 13:25:55;;;;;;;4.57;1.98;;;19.10;85.30;;;;;;5045299;28;20041;-77
2022/05/01 13:28:21;;;;;;;4.53;2.60;;;19.00;85.70;;;;;;5031052;28;20531;-78
2022/05/01 13:30:47;;;;;;;3.58;2.50;;;18.70;87.20;;;;;;5045792;28;20102;-78